Time;durP1;ratioP1;P1;durP2;ratioP2;P2;SDS_P1;SDS_P2;PMS_P1;PMS_P2;Temp;Humidity;BMP_temperature;BMP_pressure;BME280_temperature;BME280_humidity;BME280_pressure;Samples;Min_cycle;Max_cycle;Signal;HPM_P1;HPM_P2
2022/07/14 00:00:02;;;;;;;8.95;2.83;;;;;;;;;;4870901;29;20236;-73
2022/07/14 00:02:31;;;;;;;11.93;3.28;;;;;;;;;;4877353;29;20220;-73
2022/07/14 00:04:59;;;;;;;11.57;3.42;;;;;;;;;;4899377;29;20605;-73
2022/07/14 00:07:27;;;;;;;11.82;2.95;;;;;;;;;;4878614;29;20679;-73
2022/07/14 00:09:54;;;;;;;13.45;3.30;;;;;;;;;;4893232;29;20256;-73
2022/07/14 00:12:20;;;;;;;11.27;3.05;;;;;;;;;;4883958;29;20227;-73
2022/07/14 00:14:46;;;;;;;14.43;2.75;;;;;;;;;;4877647;29;20711;-73
2022/07/14 00:17:11;;;;;;;12.00;2.88;;;;;;;;;;4879409;29;20711;-73
2022/07/14 00:19:37;;;;;;;9.25;3.03;;;;;;;;;;4867443;29;20244;-73
2022/07/14 00:22:02;;;;;;;10.45;3.20;;;;;;;;;;4866624;29;20224;-73
2022/07/14 00:24:31;;;;;;;11.20;3.13;;;;;;;;;;4852515;29;20229;-74
2022/07/14 00:26:56;;;;;;;11.15;3.53;;;;;;;;;;4876793;29;20227;-73
2022/07/14 00:29:24;;;;;;;9.75;3.08;;;;;;;;;;4874775;29;20233;-72
2022/07/14 00:31:53;;;;;;;11.65;3.08;;;;;;;;;;4868257;29;20241;-72
2022/07/14 00:34:18;;;;;;;9.02;3.17;;;;;;;;;;4862632;29;20241;-73
2022/07/14 00:36:45;;;;;;;9.15;2.80;;;;;;;;;;4863211;29;20233;-73
2022/07/14 00:39:10;;;;;;;11.07;3.00;;;;;;;;;;4879611;29;20243;-74
2022/07/14 00:41:38;;;;;;;13.85;3.25;;;;;;;;;;4896004;29;20220;-73
2022/07/14 00:44:04;;;;;;;15.30;3.10;;;;;;;;;;4882351;29;20228;-74
2022/07/14 00:46:29;;;;;;;10.82;2.92;;;;;;;;;;4885163;29;20243;-73
2022/07/14 00:48:55;;;;;;;9.77;2.85;;;;;;;;;;4867934;29;20235;-73
2022/07/14 00:51:20;;;;;;;11.20;3.13;;;;;;;;;;4869227;29;20225;-73
2022/07/14 00:53:57;;;;;;;10.98;3.47;;;;;;;;;;4892961;29;20320;-73
2022/07/14 00:56:22;;;;;;;11.68;3.03;;;;;;;;;;4891890;29;20233;-73
2022/07/14 00:58:48;;;;;;;12.43;2.95;;;;;;;;;;4881505;29;20217;-73
2022/07/14 01:01:17;;;;;;;15.95;3.03;;;;;;;;;;4861387;29;21068;-74
2022/07/14 01:03:47;;;;;;;12.02;3.38;;;;;;;;;;4865903;29;20233;-73
2022/07/14 01:06:16;;;;;;;15.90;3.10;;;;;;;;;;4880494;29;20324;-74
2022/07/14 01:08:44;;;;;;;11.68;3.40;;;;;;;;;;4887010;29;20217;-73
2022/07/14 01:11:12;;;;;;;11.25;3.03;;;;;;;;;;4855918;29;20239;-73
2022/07/14 01:13:39;;;;;;;11.05;2.65;;;;;;;;;;4860446;29;20290;-73
2022/07/14 01:16:05;;;;;;;9.40;2.83;;;;;;;;;;4868236;29;20224;-73
2022/07/14 01:18:36;;;;;;;9.93;3.10;;;;;;;;;;4875297;29;20220;-73
2022/07/14 01:21:01;;;;;;;11.48;3.20;;;;;;;;;;4877370;29;20312;-74
2022/07/14 01:23:27;;;;;;;10.47;3.00;;;;;;;;;;4877915;29;20225;-73
2022/07/14 01:25:52;;;;;;;12.18;3.20;;;;;;;;;;4878594;29;20233;-73
2022/07/14 01:28:20;;;;;;;12.23;3.10;;;;;;;;;;4875855;29;20758;-73
2022/07/14 01:30:48;;;;;;;10.32;2.83;;;;;;;;;;4861420;29;20712;-73
2022/07/14 01:33:14;;;;;;;14.02;3.78;;;;;;;;;;4876640;29;20243;-73
2022/07/14 01:35:40;;;;;;;13.20;3.53;;;;;;;;;;4866760;29;20715;-73
2022/07/14 01:38:07;;;;;;;13.98;2.83;;;;;;;;;;4875969;29;20687;-73
2022/07/14 01:40:40;;;;;;;10.60;2.78;;;;;;;;;;4854455;29;20240;-73
2022/07/14 01:43:06;;;;;;;11.82;3.35;;;;;;;;;;4861761;29;20229;-73
2022/07/14 01:45:32;;;;;;;7.03;2.65;;;;;;;;;;4879945;29;20271;-73
2022/07/14 01:47:58;;;;;;;10.60;3.23;;;;;;;;;;4867057;29;20636;-73
2022/07/14 01:50:26;;;;;;;7.82;2.67;;;;;;;;;;4884320;29;20216;-73
2022/07/14 01:52:52;;;;;;;11.57;3.33;;;;;;;;;;4856973;29;20234;-73
2022/07/14 01:55:19;;;;;;;9.20;3.00;;;;;;;;;;4870702;29;20654;-73
2022/07/14 01:57:44;;;;;;;10.48;2.95;;;;;;;;;;4854415;29;20309;-73
2022/07/14 02:00:11;;;;;;;9.10;3.30;;;;;;;;;;4862539;29;20216;-74
2022/07/14 02:02:52;;;;;;;9.60;3.00;;;;;;;;;;4864772;29;20220;-73
2022/07/14 02:05:18;;;;;;;7.93;2.80;;;;;;;;;;4864719;29;20771;-74
2022/07/14 02:07:44;;;;;;;9.97;3.20;;;;;;;;;;4859289;29;20220;-74
2022/07/14 02:13:03;;;;;;;12.63;2.90;;;;;;;;;;4877931;29;20224;-75
2022/07/14 02:15:28;;;;;;;8.47;2.83;;;;;;;;;;4879567;29;20252;-74
2022/07/14 02:17:54;;;;;;;8.50;2.93;;;;;;;;;;4862484;29;20269;-74
2022/07/14 02:20:19;;;;;;;7.13;2.40;;;;;;;;;;4860131;29;20256;-74
2022/07/14 02:22:46;;;;;;;8.70;2.70;;;;;;;;;;4863557;29;20221;-74
2022/07/14 02:25:12;;;;;;;9.27;2.80;;;;;;;;;;4848756;29;20240;-74
2022/07/14 02:27:40;;;;;;;8.53;3.40;;;;;;;;;;4867337;29;20237;-74
2022/07/14 02:30:08;;;;;;;8.67;2.73;;;;;;;;;;4874726;29;20655;-73
2022/07/14 02:32:36;;;;;;;8.27;2.63;;;;;;;;;;4874894;29;20283;-73
2022/07/14 02:35:03;;;;;;;12.00;2.73;;;;;;;;;;4883245;29;20232;-74
2022/07/14 02:37:28;;;;;;;6.73;2.60;;;;;;;;;;4868230;29;20244;-73
2022/07/14 02:39:54;;;;;;;7.13;2.80;;;;;;;;;;4861911;29;20267;-74
2022/07/14 02:42:25;;;;;;;6.93;2.80;;;;;;;;;;4874851;29;20232;-74
2022/07/14 02:44:53;;;;;;;8.20;2.97;;;;;;;;;;4863813;29;20268;-73
2022/07/14 02:47:23;;;;;;;6.57;2.73;;;;;;;;;;4875129;29;20260;-73
2022/07/14 02:49:49;;;;;;;7.53;3.00;;;;;;;;;;4858209;29;20241;-73
2022/07/14 02:52:15;;;;;;;9.10;3.13;;;;;;;;;;4862449;29;20237;-74
2022/07/14 02:54:46;;;;;;;8.50;3.10;;;;;;;;;;4890737;29;20217;-73
2022/07/14 02:57:15;;;;;;;7.30;2.87;;;;;;;;;;4886205;29;20246;-73
2022/07/14 02:59:41;;;;;;;10.80;3.40;;;;;;;;;;4870796;29;20229;-73
2022/07/14 03:02:09;;;;;;;9.87;2.90;;;;;;;;;;4877123;29;20229;-73
2022/07/14 03:04:37;;;;;;;6.57;2.63;;;;;;;;;;4865625;29;20243;-73
2022/07/14 03:07:03;;;;;;;10.07;3.20;;;;;;;;;;4894221;29;20328;-73
2022/07/14 03:09:31;;;;;;;8.33;2.90;;;;;;;;;;4879034;29;20216;-74
2022/07/14 03:12:00;;;;;;;8.87;2.87;;;;;;;;;;4877861;29;20289;-73
2022/07/14 03:14:32;;;;;;;8.10;3.27;;;;;;;;;;4879325;29;20808;-73
2022/07/14 03:16:59;;;;;;;11.60;3.23;;;;;;;;;;4863714;29;20221;-74
2022/07/14 03:19:27;;;;;;;7.70;3.30;;;;;;;;;;4878556;29;20216;-73
2022/07/14 03:21:55;;;;;;;11.57;2.93;;;;;;;;;;4865297;29;20217;-73
2022/07/14 03:24:21;;;;;;;7.73;3.20;;;;;;;;;;4898596;29;20228;-73
2022/07/14 03:26:49;;;;;;;7.93;2.90;;;;;;;;;;4865166;29;20240;-73
2022/07/14 03:29:18;;;;;;;8.43;3.40;;;;;;;;;;4888088;29;20711;-74
2022/07/14 03:31:45;;;;;;;9.77;3.20;;;;;;;;;;4885110;29;20224;-73
2022/07/14 03:34:14;;;;;;;8.30;3.10;;;;;;;;;;4884073;29;20324;-74
2022/07/14 03:36:44;;;;;;;9.73;3.53;;;;;;;;;;4878717;29;20232;-73
2022/07/14 03:39:13;;;;;;;6.97;3.13;;;;;;;;;;4886267;29;20239;-73
2022/07/14 03:41:39;;;;;;;7.53;3.27;;;;;;;;;;4877421;29;20229;-74
2022/07/14 03:44:10;;;;;;;6.83;3.17;;;;;;;;;;4880285;29;20232;-73
2022/07/14 03:46:36;;;;;;;5.63;2.93;;;;;;;;;;4889570;29;20544;-73
2022/07/14 03:49:08;;;;;;;8.63;2.80;;;;;;;;;;4864592;29;20220;-73
2022/07/14 03:51:34;;;;;;;10.50;2.97;;;;;;;;;;4894321;29;20308;-73
2022/07/14 03:54:00;;;;;;;11.70;3.28;;;;;;;;;;4887339;29;20595;-73
2022/07/14 03:56:27;;;;;;;7.53;2.70;;;;;;;;;;4890169;29;20217;-73
2022/07/14 03:58:55;;;;;;;8.77;2.90;;;;;;;;;;4866636;29;20232;-73
2022/07/14 04:01:24;;;;;;;7.43;3.13;;;;;;;;;;4866174;29;20308;-72
2022/07/14 04:03:51;;;;;;;5.97;3.27;;;;;;;;;;4862939;29;20237;-73
2022/07/14 04:06:20;;;;;;;11.73;3.20;;;;;;;;;;4880275;29;20236;-73
2022/07/14 04:08:46;;;;;;;10.40;3.73;;;;;;;;;;4874910;29;20291;-74
2022/07/14 04:11:14;;;;;;;12.60;3.77;;;;;;;;;;4881894;29;20890;-74
2022/07/14 04:13:40;;;;;;;7.27;3.30;;;;;;;;;;4867174;29;20255;-73
2022/07/14 04:16:08;;;;;;;6.75;2.97;;;;;;;;;;4895739;29;20589;-73
2022/07/14 04:18:39;;;;;;;8.07;2.70;;;;;;;;;;4882266;29;20284;-74
2022/07/14 04:21:10;;;;;;;5.20;2.30;;;;;;;;;;4877951;29;20221;-74
2022/07/14 04:23:37;;;;;;;10.43;2.90;;;;;;;;;;4877181;29;20289;-73
2022/07/14 04:26:03;;;;;;;8.33;3.10;;;;;;;;;;4877295;29;20288;-73
2022/07/14 04:28:32;;;;;;;8.93;3.17;;;;;;;;;;4863158;29;20217;-74
2022/07/14 04:31:00;;;;;;;5.10;2.60;;;;;;;;;;4878773;29;20265;-73
2022/07/14 04:33:28;;;;;;;5.70;3.20;;;;;;;;;;4895073;29;20231;-73
2022/07/14 04:35:56;;;;;;;6.20;3.10;;;;;;;;;;4891947;29;20232;-73
2022/07/14 04:38:29;;;;;;;9.03;2.93;;;;;;;;;;4876661;29;20229;-73
2022/07/14 04:40:56;;;;;;;10.95;3.15;;;;;;;;;;4863848;29;20224;-74
2022/07/14 04:43:24;;;;;;;7.33;3.30;;;;;;;;;;4876271;29;20271;-73
2022/07/14 04:45:52;;;;;;;5.93;3.00;;;;;;;;;;4875924;29;20253;-72
2022/07/14 04:48:21;;;;;;;7.47;3.20;;;;;;;;;;4886283;29;20706;-73
2022/07/14 04:53:37;;;;;;;9.13;3.17;;;;;;;;;;4869181;29;20857;-74
2022/07/14 04:56:32;;;;;;;7.83;2.97;;;;;;;;;;4874074;29;20217;-74
2022/07/14 04:59:11;;;;;;;11.37;3.57;;;;;;;;;;4867459;29;20233;-74
2022/07/14 05:01:37;;;;;;;8.30;3.40;;;;;;;;;;4876465;29;20235;-74
2022/07/14 05:04:03;;;;;;;8.03;3.23;;;;;;;;;;4872385;29;20255;-74
2022/07/14 05:06:28;;;;;;;7.00;3.13;;;;;;;;;;4885550;29;20260;-74
2022/07/14 05:08:54;;;;;;;8.37;3.30;;;;;;;;;;4883852;29;20224;-73
2022/07/14 05:11:20;;;;;;;8.45;3.35;;;;;;;;;;4891298;29;20221;-73
2022/07/14 05:13:45;;;;;;;6.78;3.25;;;;;;;;;;4892827;29;20615;-74
2022/07/14 05:16:11;;;;;;;7.80;3.20;;;;;;;;;;4865501;29;20262;-73
2022/07/14 05:18:39;;;;;;;5.38;2.72;;;;;;;;;;4890272;23;20768;-82
2022/07/14 05:21:04;;;;;;;10.27;3.17;;;;;;;;;;4823302;29;20378;-83
2022/07/14 05:23:32;;;;;;;8.68;3.28;;;;;;;;;;4837674;29;20298;-80
2022/07/14 05:26:00;;;;;;;9.35;3.28;;;;;;;;;;4834894;29;20269;-80
2022/07/14 05:28:27;;;;;;;7.90;3.00;;;;;;;;;;4846846;29;20302;-82
2022/07/14 05:30:57;;;;;;;9.75;3.50;;;;;;;;;;4859204;29;20241;-82
2022/07/14 05:33:31;;;;;;;6.53;3.35;;;;;;;;;;4857135;29;20235;-83
2022/07/14 05:35:56;;;;;;;6.50;3.22;;;;;;;;;;4842493;29;20246;-83
2022/07/14 05:38:23;;;;;;;8.23;3.28;;;;;;;;;;4842196;29;20269;-83
2022/07/14 05:40:52;;;;;;;6.68;3.20;;;;;;;;;;4856137;29;20691;-83
2022/07/14 05:43:20;;;;;;;6.95;3.22;;;;;;;;;;4840075;29;20236;-80
2022/07/14 05:45:48;;;;;;;9.70;3.08;;;;;;;;;;4858908;29;20321;-82
2022/07/14 05:48:23;;;;;;;12.02;3.17;;;;;;;;;;4851000;29;20268;-81
2022/07/14 05:50:48;;;;;;;8.85;3.15;;;;;;;;;;4853476;29;20250;-80
2022/07/14 05:53:14;;;;;;;10.70;3.43;;;;;;;;;;4819629;29;20278;-80
2022/07/14 05:55:42;;;;;;;7.40;3.03;;;;;;;;;;4849582;29;20234;-79
2022/07/14 05:58:13;;;;;;;9.25;3.10;;;;;;;;;;4864281;29;20229;-80
2022/07/14 06:00:45;;;;;;;6.55;3.13;;;;;;;;;;4858836;29;20313;-79
2022/07/14 06:03:13;;;;;;;6.40;2.40;;;;;;;;;;4850542;29;20728;-80
2022/07/14 06:05:41;;;;;;;6.10;2.40;;;;;;;;;;4854771;29;20246;-81
2022/07/14 06:08:08;;;;;;;5.93;2.00;;;;;;;;;;4858775;29;20221;-84
2022/07/14 06:10:33;;;;;;;4.03;1.75;;;;;;;;;;4825336;29;20238;-83
2022/07/14 06:13:03;;;;;;;5.57;2.03;;;;;;;;;;4838596;29;20219;-81
2022/07/14 06:15:29;;;;;;;8.55;2.47;;;;;;;;;;4847581;29;20294;-81
2022/07/14 06:17:55;;;;;;;6.97;1.75;;;;;;;;;;4857357;29;20741;-80
2022/07/14 06:20:23;;;;;;;6.18;1.60;;;;;;;;;;4843706;29;20250;-80
2022/07/14 06:22:50;;;;;;;7.75;1.88;;;;;;;;;;4851855;29;20285;-82
2022/07/14 06:25:16;;;;;;;7.28;1.88;;;;;;;;;;4844513;29;20797;-82
2022/07/14 06:27:42;;;;;;;4.43;1.30;;;;;;;;;;4856955;29;20344;-81
2022/07/14 06:30:11;;;;;;;8.57;1.50;;;;;;;;;;4864562;29;20233;-81
2022/07/14 06:32:40;;;;;;;4.68;1.52;;;;;;;;;;4813795;29;20214;-84
2022/07/14 06:35:07;;;;;;;4.45;1.50;;;;;;;;;;4844254;29;20222;-80
2022/07/14 06:37:36;;;;;;;4.25;1.35;;;;;;;;;;4858147;29;20209;-81
2022/07/14 06:40:06;;;;;;;9.13;1.45;;;;;;;;;;4873320;29;20572;-81
2022/07/14 06:42:37;;;;;;;4.47;1.50;;;;;;;;;;4864368;29;20238;-80
2022/07/14 06:45:21;;;;;;;3.72;1.25;;;;;;;;;;4848722;29;20232;-80
2022/07/14 06:47:47;;;;;;;2.33;1.08;;;;;;;;;;4858908;29;20221;-81
2022/07/14 06:50:17;;;;;;;6.70;1.25;;;;;;;;;;4856243;29;20305;-84
2022/07/14 06:52:42;;;;;;;4.20;1.20;;;;;;;;;;4856156;29;20669;-84
2022/07/14 06:55:11;;;;;;;4.50;1.20;;;;;;;;;;4847902;29;20301;-84
2022/07/14 06:57:39;;;;;;;4.05;1.38;;;;;;;;;;4847647;29;20226;-83
2022/07/14 07:00:08;;;;;;;5.78;1.33;;;;;;;;;;4861847;29;20233;-83
2022/07/14 07:02:36;;;;;;;3.22;1.20;;;;;;;;;;4866174;29;20261;-83
2022/07/14 07:08:00;;;;;;;3.45;0.88;;;;;;;;;;4858389;29;20974;-83
2022/07/14 07:10:26;;;;;;;2.08;1.20;;;;;;;;;;4836702;29;20289;-82
2022/07/14 07:12:52;;;;;;;3.08;0.90;;;;;;;;;;4843145;29;20250;-80
2022/07/14 07:15:18;;;;;;;2.75;1.08;;;;;;;;;;4851905;29;20242;-81
2022/07/14 07:17:43;;;;;;;4.00;1.08;;;;;;;;;;4874108;29;20226;-82
2022/07/14 07:20:12;;;;;;;1.55;0.90;;;;;;;;;;4849605;29;20238;-82
2022/07/14 07:22:38;;;;;;;3.05;1.10;;;;;;;;;;4872908;29;20309;-80
2022/07/14 07:25:06;;;;;;;5.38;1.20;;;;;;;;;;4838087;29;20730;-82
2022/07/14 07:27:32;;;;;;;4.90;1.17;;;;;;;;;;4859331;29;20235;-82
2022/07/14 07:30:03;;;;;;;2.63;0.93;;;;;;;;;;4839612;29;20230;-82
2022/07/14 07:32:31;;;;;;;2.38;0.95;;;;;;;;;;4857622;29;20707;-81
2022/07/14 07:34:56;;;;;;;2.97;1.13;;;;;;;;;;4842844;29;20233;-84
2022/07/14 07:37:22;;;;;;;4.15;1.17;;;;;;;;;;4835201;29;20234;-81
2022/07/14 07:39:48;;;;;;;2.42;0.85;;;;;;;;;;4836821;29;20317;-81
2022/07/14 07:42:16;;;;;;;2.60;0.90;;;;;;;;;;4856758;29;20767;-84
2022/07/14 07:44:42;;;;;;;1.85;0.85;;;;;;;;;;4852437;29;20588;-81
2022/07/14 07:47:08;;;;;;;2.92;0.85;;;;;;;;;;4855218;29;20229;-82
2022/07/14 07:49:36;;;;;;;4.13;1.10;;;;;;;;;;4846200;29;20584;-80
2022/07/14 07:52:01;;;;;;;1.80;0.70;;;;;;;;;;4849998;29;20780;-80
2022/07/14 07:54:31;;;;;;;4.07;1.00;;;;;;;;;;4852395;29;20227;-82
2022/07/14 07:56:59;;;;;;;2.63;1.20;;;;;;;;;;4848865;29;20282;-83
2022/07/14 07:59:28;;;;;;;3.60;0.98;;;;;;;;;;4848920;29;20237;-81
2022/07/14 08:01:53;;;;;;;1.25;0.82;;;;;;;;;;4846208;29;20305;-85
2022/07/14 08:04:19;;;;;;;1.75;0.90;;;;;;;;;;4862198;29;20628;-82
2022/07/14 08:06:47;;;;;;;5.13;1.00;;;;;;;;;;4819921;29;20734;-83
2022/07/14 08:12:19;;;;;;;2.80;0.90;;;;;;;;;;4894945;29;20299;-73
2022/07/14 08:14:51;;;;;;;3.30;1.33;;;;;;;;;;4877549;29;20221;-74
2022/07/14 08:17:19;;;;;;;4.40;1.30;;;;;;;;;;4893336;29;20232;-73
2022/07/14 08:19:45;;;;;;;1.98;1.15;;;;;;;;;;4876062;29;20249;-73
2022/07/14 08:22:13;;;;;;;3.15;1.08;;;;;;;;;;4874025;29;20255;-73
2022/07/14 08:24:43;;;;;;;3.85;1.30;;;;;;;;;;4879959;29;20311;-72
2022/07/14 08:27:08;;;;;;;3.42;1.30;;;;;;;;;;4893152;29;20284;-72
2022/07/14 08:29:34;;;;;;;2.65;0.90;;;;;;;;;;4891464;29;20237;-74
2022/07/14 08:31:59;;;;;;;2.35;1.10;;;;;;;;;;4879184;29;20310;-72
2022/07/14 08:34:29;;;;;;;6.38;1.35;;;;;;;;;;4877803;29;20224;-73
2022/07/14 08:36:55;;;;;;;3.05;1.17;;;;;;;;;;4876753;29;20217;-72
2022/07/14 08:39:20;;;;;;;3.65;1.17;;;;;;;;;;4877216;29;20571;-72
2022/07/14 08:41:47;;;;;;;2.80;1.08;;;;;;;;;;4880538;29;20228;-74
2022/07/14 08:44:16;;;;;;;3.53;1.35;;;;;;;;;;4861820;29;20217;-73
2022/07/14 08:46:42;;;;;;;5.45;1.20;;;;;;;;;;4876353;29;20245;-72
2022/07/14 08:49:07;;;;;;;3.55;1.02;;;;;;;;;;4865776;29;20243;-71
2022/07/14 08:51:33;;;;;;;2.60;1.10;;;;;;;;;;4877125;29;20281;-73
2022/07/14 08:54:00;;;;;;;2.50;1.00;;;;;;;;;;4875589;29;20232;-74
2022/07/14 08:56:26;;;;;;;3.38;1.00;;;;;;;;;;4891787;29;20239;-72
2022/07/14 08:58:54;;;;;;;2.08;1.00;;;;;;;;;;4875890;29;20243;-73
2022/07/14 09:01:21;;;;;;;3.13;1.10;;;;;;;;;;4861817;29;20220;-73
2022/07/14 09:03:49;;;;;;;3.38;1.20;;;;;;;;;;4862870;29;20232;-73
2022/07/14 09:06:51;;;;;;;1.90;1.00;;;;;;;;;;4892994;29;20252;-73
2022/07/14 09:09:30;;;;;;;4.53;1.20;;;;;;;;;;4787406;29;20313;-72
2022/07/14 09:11:57;;;;;;;2.58;0.80;;;;;;;;;;4868700;29;20229;-71
2022/07/14 09:14:23;;;;;;;3.55;1.10;;;;;;;;;;4874862;29;20240;-71
2022/07/14 09:16:49;;;;;;;3.40;0.90;;;;;;;;;;4875524;29;20235;-73
2022/07/14 09:19:15;;;;;;;2.60;1.00;;;;;;;;;;4891974;29;20240;-72
2022/07/14 09:21:55;;;;;;;3.05;0.80;;;;;;;;;;4889442;29;20683;-73
2022/07/14 09:24:23;;;;;;;3.38;1.35;;;;;;;;;;4862574;29;20229;-71
2022/07/14 09:26:52;;;;;;;5.63;1.13;;;;;;;;;;4865549;29;20228;-74
2022/07/14 09:29:23;;;;;;;6.00;1.80;;;;;;;;;;4861209;29;20225;-73
2022/07/14 09:31:48;;;;;;;5.70;1.25;;;;;;;;;;4888713;29;20746;-74
2022/07/14 09:34:33;;;;;;;3.38;1.20;;;;;;;;;;4874525;29;20252;-71
2022/07/14 09:37:16;;;;;;;5.10;1.13;;;;;;;;;;4864177;29;20236;-72
2022/07/14 09:39:55;;;;;;;7.38;1.45;;;;;;;;;;4882567;29;20232;-71
2022/07/14 09:42:21;;;;;;;3.40;1.15;;;;;;;;;;4873791;29;20311;-74
2022/07/14 09:44:50;;;;;;;3.78;1.10;;;;;;;;;;4876042;29;20293;-71
2022/07/14 09:47:16;;;;;;;4.75;1.40;;;;;;;;;;4878710;29;20778;-73
2022/07/14 09:49:41;;;;;;;2.60;1.00;;;;;;;;;;4876993;29;20241;-71
2022/07/14 09:52:07;;;;;;;3.08;0.95;;;;;;;;;;4875483;29;20236;-72
2022/07/14 09:54:46;;;;;;;3.47;1.00;;;;;;;;;;4860159;29;20263;-71
2022/07/14 09:57:13;;;;;;;2.88;1.10;;;;;;;;;;4879886;29;20221;-73
2022/07/14 10:00:12;;;;;;;1.55;0.90;;;;;;;;;;4877777;29;20232;-72
2022/07/14 10:02:40;;;;;;;3.90;1.20;;;;;;;;;;4851695;29;20316;-72
2022/07/14 10:05:07;;;;;;;1.70;0.77;;;;;;;;;;4876573;29;20228;-72
2022/07/14 10:07:36;;;;;;;2.00;1.10;;;;;;;;;;4876197;29;20648;-73
2022/07/14 10:10:02;;;;;;;2.60;1.00;;;;;;;;;;4874971;29;20276;-71
2022/07/14 10:12:27;;;;;;;2.22;0.90;;;;;;;;;;4876021;29;20280;-73
2022/07/14 10:14:59;;;;;;;3.60;1.00;;;;;;;;;;4873949;29;20247;-72
2022/07/14 10:17:26;;;;;;;3.80;0.98;;;;;;;;;;4892726;29;20231;-73
2022/07/14 10:19:54;;;;;;;2.83;0.73;;;;;;;;;;4893596;29;20757;-73
2022/07/14 10:22:25;;;;;;;2.33;0.90;;;;;;;;;;4861396;29;20227;-74
2022/07/14 10:24:55;;;;;;;2.53;0.98;;;;;;;;;;4878404;29;20235;-72
2022/07/14 10:27:21;;;;;;;1.42;0.85;;;;;;;;;;4846192;29;20389;-73
2022/07/14 10:29:50;;;;;;;2.72;0.85;;;;;;;;;;4871854;29;20704;-73
2022/07/14 10:32:38;;;;;;;2.00;1.10;;;;;;;;;;4867199;29;20212;-72
2022/07/14 10:35:27;;;;;;;3.97;1.10;;;;;;;;;;4889440;29;20322;-71
2022/07/14 10:38:34;;;;;;;2.83;1.20;;;;;;;;;;4890020;29;20228;-72
2022/07/14 10:41:12;;;;;;;2.05;1.20;;;;;;;;;;4875022;29;20220;-72
2022/07/14 10:44:00;;;;;;;2.50;0.80;;;;;;;;;;4872505;29;20285;-72
2022/07/14 10:46:37;;;;;;;2.10;0.85;;;;;;;;;;4890876;29;20290;-72
2022/07/14 10:49:04;;;;;;;4.05;1.08;;;;;;;;;;4857265;29;20232;-75
2022/07/14 10:51:32;;;;;;;2.03;1.08;;;;;;;;;;4859135;29;20232;-75
2022/07/14 10:54:11;;;;;;;3.17;1.08;;;;;;;;;;4876067;29;20237;-74
2022/07/14 10:56:40;;;;;;;1.83;0.85;;;;;;;;;;4872393;29;20710;-74
2022/07/14 10:59:26;;;;;;;2.10;0.85;;;;;;;;;;4873778;29;20228;-72
2022/07/14 11:02:13;;;;;;;1.63;0.70;;;;;;;;;;4890305;29;20252;-71
2022/07/14 11:05:00;;;;;;;2.40;0.77;;;;;;;;;;4889519;29;20614;-72
2022/07/14 11:07:38;;;;;;;1.60;0.80;;;;;;;;;;4889845;29;20327;-73
2022/07/14 11:10:24;;;;;;;2.28;0.85;;;;;;;;;;4889790;29;20236;-72
2022/07/14 11:12:59;;;;;;;2.47;0.95;;;;;;;;;;4841482;29;20229;-70
2022/07/14 11:15:38;;;;;;;2.83;0.93;;;;;;;;;;4890621;29;20320;-73
2022/07/14 11:18:18;;;;;;;3.95;1.00;;;;;;;;;;4879841;29;20227;-70
2022/07/14 11:21:07;;;;;;;2.85;0.95;;;;;;;;;;4875987;29;20240;-71
2022/07/14 11:23:37;;;;;;;3.22;1.08;;;;;;;;;;4872190;29;20235;-71
2022/07/14 11:26:25;;;;;;;1.88;0.90;;;;;;;;;;4878063;29;20255;-71
2022/07/14 11:28:53;;;;;;;6.38;1.00;;;;;;;;;;4895476;29;20228;-72
2022/07/14 11:31:22;;;;;;;3.47;1.10;;;;;;;;;;4891764;29;20236;-71
2022/07/14 11:37:02;;;;;;;2.10;0.90;;;;;;;;;;4852211;29;20359;-71
2022/07/14 11:39:31;;;;;;;2.95;0.80;;;;;;;;;;4879737;29;20239;-73
2022/07/14 11:42:06;;;;;;;2.42;1.17;;;;;;;;;;4893087;29;20251;-72
2022/07/14 11:44:35;;;;;;;2.20;1.13;;;;;;;;;;4894063;29;20240;-71
2022/07/14 11:47:13;;;;;;;2.20;0.90;;;;;;;;;;4893072;29;20237;-73
2022/07/14 11:49:38;;;;;;;2.55;0.90;;;;;;;;;;4878738;29;20236;-71
2022/07/14 11:52:07;;;;;;;1.40;0.85;;;;;;;;;;4859388;29;20300;-73
2022/07/14 11:54:33;;;;;;;1.40;0.80;;;;;;;;;;4859556;29;20228;-72
2022/07/14 11:57:09;;;;;;;2.50;1.17;;;;;;;;;;4876432;29;20229;-71
2022/07/14 11:59:40;;;;;;;2.30;1.08;;;;;;;;;;4877527;29;20228;-72
2022/07/14 12:02:17;;;;;;;2.03;1.08;;;;;;;;;;4875597;29;20253;-71
2022/07/14 12:04:59;;;;;;;5.15;0.98;;;;;;;;;;4877898;29;20275;-71
2022/07/14 12:07:26;;;;;;;3.70;0.93;;;;;;;;;;4891438;29;20259;-71
2022/07/14 12:09:56;;;;;;;2.25;0.90;;;;;;;;;;4878013;29;20613;-73
2022/07/14 12:12:24;;;;;;;1.90;1.00;;;;;;;;;;4874941;29;20651;-72
2022/07/14 12:14:52;;;;;;;2.42;0.57;;;;;;;;;;4882620;29;20232;-73
2022/07/14 12:17:18;;;;;;;2.53;1.00;;;;;;;;;;4882564;29;20271;-73
2022/07/14 12:19:44;;;;;;;2.83;0.85;;;;;;;;;;4876708;29;21047;-73
2022/07/14 12:22:10;;;;;;;2.00;0.75;;;;;;;;;;4848185;29;20225;-72
2022/07/14 12:24:36;;;;;;;2.17;0.80;;;;;;;;;;4849759;29;20240;-73
2022/07/14 12:27:06;;;;;;;2.08;0.85;;;;;;;;;;4844884;29;20323;-74
2022/07/14 12:29:34;;;;;;;0.90;0.50;;;;;;;;;;4877240;29;20233;-72
2022/07/14 12:32:00;;;;;;;1.92;0.60;;;;;;;;;;4852150;29;20273;-73
2022/07/14 12:34:31;;;;;;;2.15;0.80;;;;;;;;;;4861432;29;20224;-74
2022/07/14 12:37:00;;;;;;;3.45;0.90;;;;;;;;;;4861831;29;20230;-71
2022/07/14 12:39:26;;;;;;;1.88;0.70;;;;;;;;;;4860139;29;20310;-72
2022/07/14 12:41:54;;;;;;;2.45;0.90;;;;;;;;;;4861591;29;20257;-73
2022/07/14 12:44:22;;;;;;;3.80;0.80;;;;;;;;;;4861313;29;20229;-72
2022/07/14 12:47:11;;;;;;;2.33;0.80;;;;;;;;;;4854054;29;20795;-72
2022/07/14 12:49:47;;;;;;;1.88;0.60;;;;;;;;;;4893477;29;20268;-72
2022/07/14 12:52:13;;;;;;;3.05;0.80;;;;;;;;;;4881049;29;20220;-73
2022/07/14 12:54:41;;;;;;;0.90;0.50;;;;;;;;;;4894090;29;20235;-72
2022/07/14 12:57:07;;;;;;;1.50;0.60;;;;;;;;;;4859047;29;20228;-74
2022/07/14 12:59:36;;;;;;;2.03;0.70;;;;;;;;;;4862262;29;20213;-73
2022/07/14 13:02:06;;;;;;;1.58;0.75;;;;;;;;;;4891941;29;20224;-73
2022/07/14 13:04:32;;;;;;;1.83;0.70;;;;;;;;;;4877575;29;20711;-72
2022/07/14 13:07:00;;;;;;;2.20;0.80;;;;;;;;;;4877030;29;20275;-72
2022/07/14 13:09:28;;;;;;;1.30;0.60;;;;;;;;;;4852010;29;20232;-72
2022/07/14 13:11:55;;;;;;;1.75;0.80;;;;;;;;;;4891557;29;20233;-73
2022/07/14 13:14:20;;;;;;;0.90;0.65;;;;;;;;;;4891311;29;20618;-72
2022/07/14 13:16:48;;;;;;;1.38;0.60;;;;;;;;;;4863676;29;20221;-72
2022/07/14 13:19:18;;;;;;;1.77;0.65;;;;;;;;;;4876112;29;20755;-73
2022/07/14 13:21:59;;;;;;;1.33;0.60;;;;;;;;;;4875380;29;20477;-73
2022/07/14 13:24:28;;;;;;;3.75;0.65;;;;;;;;;;4861430;29;21084;-72
2022/07/14 13:27:15;;;;;;;2.58;0.70;;;;;;;;;;4891585;29;20233;-73
2022/07/14 13:29:48;;;;;;;1.38;0.70;;;;;;;;;;4892083;29;20243;-75
2022/07/14 13:32:17;;;;;;;1.58;0.70;;;;;;;;;;4892971;29;20397;-72
2022/07/14 13:34:42;;;;;;;1.27;0.57;;;;;;;;;;4855975;29;20256;-73
2022/07/14 13:37:09;;;;;;;1.67;0.60;;;;;;;;;;4876453;29;20212;-72
2022/07/14 13:39:44;;;;;;;2.53;0.75;;;;;;;;;;4871297;29;20731;-72
2022/07/14 13:42:10;;;;;;;1.80;0.80;;;;;;;;;;4878720;29;20346;-72
2022/07/14 13:44:35;;;;;;;1.67;0.77;;;;;;;;;;4877939;29;20235;-74
2022/07/14 13:47:01;;;;;;;2.60;0.63;;;;;;;;;;4874858;29;20237;-72
2022/07/14 13:49:26;;;;;;;2.40;0.70;;;;;;;;;;4892238;29;20292;-72
2022/07/14 13:52:09;;;;;;;1.35;0.70;;;;;;;;;;4876903;29;20232;-73
2022/07/14 13:54:38;;;;;;;1.58;0.60;;;;;;;;;;4852441;29;20324;-73
2022/07/14 13:57:06;;;;;;;1.77;0.60;;;;;;;;;;4876041;29;20220;-73
2022/07/14 13:59:32;;;;;;;1.80;0.40;;;;;;;;;;4892652;29;20228;-72
2022/07/14 14:02:00;;;;;;;1.17;0.47;;;;;;;;;;4867423;29;20313;-73
2022/07/14 14:04:25;;;;;;;1.40;0.70;;;;;;;;;;4890605;29;20233;-71
2022/07/14 14:06:51;;;;;;;2.25;0.70;;;;;;;;;;4864270;29;20232;-72
2022/07/14 14:09:16;;;;;;;0.80;0.60;;;;;;;;;;4891545;29;20234;-73
2022/07/14 14:11:42;;;;;;;0.75;0.40;;;;;;;;;;4858851;29;20315;-75
2022/07/14 14:14:08;;;;;;;0.52;0.32;;;;;;;;;;4850117;29;20233;-72
2022/07/14 14:16:36;;;;;;;0.50;0.50;;;;;;;;;;4856224;29;20240;-72
2022/07/14 14:19:02;;;;;;;2.75;0.55;;;;;;;;;;4876262;29;20714;-74
2022/07/14 14:21:27;;;;;;;1.30;0.75;;;;;;;;;;4844516;29;20217;-72
2022/07/14 14:23:56;;;;;;;2.50;0.60;;;;;;;;;;4890381;29;20754;-73
2022/07/14 14:26:22;;;;;;;1.65;0.60;;;;;;;;;;4875765;29;20259;-72
2022/07/14 14:28:50;;;;;;;1.95;0.60;;;;;;;;;;4891072;29;20308;-71
2022/07/14 14:31:21;;;;;;;2.45;0.60;;;;;;;;;;4873916;29;20225;-73
2022/07/14 14:33:49;;;;;;;0.93;0.50;;;;;;;;;;4892965;29;20231;-73
2022/07/14 14:36:15;;;;;;;1.83;0.75;;;;;;;;;;4873908;29;20358;-72
2022/07/14 14:38:46;;;;;;;0.85;0.50;;;;;;;;;;4876649;29;20256;-72
2022/07/14 14:41:17;;;;;;;1.60;0.80;;;;;;;;;;4866260;29;20222;-74
2022/07/14 14:43:45;;;;;;;1.38;0.52;;;;;;;;;;4876867;29;20220;-73
2022/07/14 14:46:13;;;;;;;1.42;0.70;;;;;;;;;;4874363;29;20264;-72
2022/07/14 14:48:39;;;;;;;0.82;0.50;;;;;;;;;;4880389;29;20237;-72
2022/07/14 14:51:05;;;;;;;1.63;0.57;;;;;;;;;;4864842;29;20228;-72
2022/07/14 14:53:30;;;;;;;2.40;0.60;;;;;;;;;;4854998;29;20229;-74
2022/07/14 14:55:58;;;;;;;1.63;0.50;;;;;;;;;;4866221;29;20224;-73
2022/07/14 14:58:23;;;;;;;3.03;0.70;;;;;;;;;;4879155;29;20231;-73
2022/07/14 15:00:54;;;;;;;3.03;0.70;;;;;;;;;;4849555;29;20237;-73
2022/07/14 15:03:19;;;;;;;3.88;0.70;;;;;;;;;;4845124;29;20315;-73
2022/07/14 15:05:47;;;;;;;2.65;0.80;;;;;;;;;;4876614;29;20270;-74